x

Ne Puerto Rico - 170 Nm Nne Of San Juan, P R (41043) Wave Buoy

11:50pm - Sun 21st Sep 2014 All times are AST. -4 hours from GMT.

  • Sig Wave height 4.3ft
  • Swell Direction
  • Peak Period 7s
  • Average Period 5s
  • Wind
    16mph, 27mph gusts
  • Sea Temp 84°f
  • Air Temp 83°f
  • Sea Pressure 1018mb
  • Ne Puerto Rico  - 170 Nm Nne Of San Juan,  P R
  • Ne Puerto Rico  - 170 Nm Nne Of San Juan,  P R

More Historic Weather Station data

Upgrade to MSW Pro to gain access to the past 30 days of data for over 8000 Wavebouys and Weather Stations around the globe.

Join Pro

Comparision Forecast

View Surf forecast
   
Sun 09/21 11:50pm 4.5ft 7s 5s 16 27 mph 1018mb 84f 83f
10:50pm 4ft 7s 5s 16 18 mph 1018.1mb 84f 83f
9:50pm 4ft 8s 5s 16 20 mph 1017.7mb 84f 83f
8:50pm 4.5ft 7s 5s 18 20 mph 1018mb 84f 83f
7:50pm 4ft 7s 5s 13 16 mph 1017.7mb 85f 83f
6:50pm 3.5ft 7s 5s 11 13 mph 1017.1mb 85f 83f
5:50pm 3.5ft 6s 5s 13 16 mph 1017mb 85f 83f
4:50pm 4ft 6s 5s 13 16 mph 1016.9mb 85f 83f
3:50pm 3.5ft 7s 5s 13 22 mph 1016.7mb 85f 83f
2:50pm 3.5ft 6s 5s 11 13 mph 1016.9mb 85f 84f
1:50pm 4ft 6s 5s 11 13 mph 1017.2mb 85f 84f
12:50pm 3.5ft 6s 5s 11 13 mph 1018.1mb 85f 84f
11:50am 4ft 6s 5s 11 13 mph 1018.6mb 85f 84f
10:50am 3.5ft 6s 5s 13
mph
1019mb 84f 84f
9:50am 3.5ft 6s 5s 13 16 mph 1019mb 84f 84f
8:50am 4ft 6s 5s 13 16 mph 1018.3mb 84f 84f
7:50am 4ft 7s 5s 13 16 mph 1017.7mb 84f 84f
6:50am 4ft 7s 5s 13 16 mph 1017.4mb 84f 83f
5:50am 4ft 7s 5s 13 16 mph 1016.7mb 84f 83f
4:50am 4ft 6s 5s 13 18 mph 1016.2mb 84f 83f
3:50am 3.5ft 6s 5s 13 16 mph 1015.8mb 84f 83f
2:50am 4ft 6s 5s 13 16 mph 1016.1mb 84f 83f
1:50am 4ft 5s 5s 13 16 mph 1016.7mb 84f 83f
12:50am 4ft 7s 5s 16 22 mph 1017.2mb 84f 83f
Sat 09/20 11:50pm 4ft 5s 5s 16 20 mph 1017.6mb 84f 84f
10:50pm 4ft 8s 5s 16 18 mph 1017.9mb 84f 84f
9:50pm 4ft 8s 5s 16 18 mph 1017.9mb 84f 84f
8:50pm 3.5ft 7s 5s 16 18 mph 1017.4mb 84f 84f
7:50pm 3.5ft 8s 5s 13 18 mph 1016.8mb 84f 84f
6:50pm 3.5ft 8s 5s 13 18 mph 1016.3mb 84f 83f
5:50pm 3.5ft 8s 5s 13 16 mph 1015.9mb 85f 84f
4:50pm 4ft 9s 5s 13 16 mph 1015.5mb 85f 84f
3:50pm 3.5ft 7s 5s 13 16 mph 1015.5mb 85f 83f
2:50pm 3.5ft 5s 5s 13 18 mph 1015.7mb 85f 84f
1:50pm 4ft 8s 5s 13 18 mph 1016mb 85f 84f
12:50pm 4ft 7s 5s 13 18 mph 1016.6mb 85f 83f
11:50am 4.5ft 8s 5s 16 18 mph 1017.2mb 84f 84f
10:50am 4ft 8s 5s 16 18 mph 1017.4mb 84f 83f
9:50am 4.5ft 5s 5s 16 20 mph 1017.3mb 84f 83f
8:50am 4ft 6s 5s 11 13 mph 1017mb 84f 82f
7:50am 4ft 8s 5s 13 18 mph 1016.6mb 84f 83f
6:50am 4ft 8s 5s 16 20 mph 1016mb 84f 83f
5:50am 4ft 9s 5s 16 20 mph 1015.4mb 84f 83f
3:50am 4ft 8s 5s 13 16 mph 1015mb 84f 82f
2:50am 4.5ft 7s 5s 20 27 mph 1014.8mb 84f 82f
1:50am 4.5ft 8s 5s 16 18 mph 1015.5mb 84f 82f
12:50am 4.5ft 7s 5s 16 20 mph 1016.1mb 84f 83f
Fri 09/19 11:50pm 4ft 8s 5s 18 22 mph 1016.6mb 84f 83f
10:50pm 4.5ft 7s 5s 16 20 mph 1017mb 84f 83f
9:50pm 4ft 7s 5s 13 18 mph 1017.5mb 84f 83f
8:50pm 4ft 8s 5s 13 18 mph 1017.1mb 84f 83f
7:50pm 3.5ft 8s 5s 13 16 mph 1016.4mb 84f 83f
6:50pm 4ft 8s 5s 13
mph
1015.9mb 84f 83f
5:50pm 4.5ft 8s 5s 13 18 mph 1015.4mb 85f 83f
4:50pm 4ft 8s 5s 9 11 mph 1015.3mb 85f 84f
3:50pm 4.5ft 8s 5s 13 16 mph 1015mb 85f 84f
2:50pm 4ft 8s 5s 13 16 mph 1015.1mb 85f 84f
1:50pm 4ft 8s 5s 13 16 mph 1015.4mb 85f 84f
12:50pm 4.5ft 8s 5s 13 16 mph 1016mb 85f 84f
11:50am 4.5ft 8s 5s 13 16 mph 1016.6mb 84f 84f
10:50am 4.5ft 8s 5s 13 16 mph 1016.9mb 84f 84f
9:50am 4.5ft 8s 5s 16 18 mph 1016.7mb 84f 84f
8:50am 4.5ft 9s 6s 13 16 mph 1016.5mb 84f 84f
7:50am 4.5ft 7s 5s 13 16 mph 1016.2mb 84f 83f
6:50am 4ft 8s 5s 11 13 mph 1015.6mb 84f 83f
5:50am 4.5ft 7s 5s 16 18 mph 1014.6mb 84f 83f
4:50am 4.5ft 9s 5s 18 20 mph 1013.9mb 84f 83f
3:50am 4.5ft 7s 5s 16 20 mph 1013.7mb 84f 83f
2:50am 5ft 8s 6s 18 22 mph 1013.9mb 84f 83f
1:50am 5ft 7s 6s 16 18 mph 1014.4mb 84f 83f
12:50am 5.5ft 7s 6s 7 9 mph 1015.8mb 84f 83f
Thu 09/18 11:50pm 6ft 6s 6s 11 13 mph 1017.1mb 84f 83f
10:50pm 5.5ft 6s 5s 16 18 mph 1017.1mb 84f 82f
9:50pm 5.5ft 6s 5s 22 25 mph 1016.1mb 84f 80f
8:50pm 5ft 9s 5s 25 29 mph 1016mb 84f 76f
7:50pm 4.5ft 10s 5s 18 22 mph 1015.5mb 84f 84f
6:50pm 4.5ft 6s 5s 16 18 mph 1015mb 84f 83f
5:50pm 4.5ft 10s 5s 11 16 mph 1014.9mb 84f 84f
4:50pm 4.5ft 6s 5s 13 16 mph 1013.4mb 84f 83f
3:50pm 5.5ft 5s 5s 25 29 mph 1011.8mb 84f 83f
2:50pm 5ft 6s 5s 34 43 mph 1012.8mb 84f 81f
1:50pm 4ft 9s 5s 25 29 mph 1013.5mb 84f 81f
12:50pm 3.5ft 9s 5s 18 22 mph 1014.2mb 85f 82f
11:50am 4ft 10s 6s 11 16 mph 1015.1mb 85f 83f
10:50am 4.5ft 10s 6s 16 18 mph 1015.6mb 85f 83f
9:50am 4ft 10s 6s 9 11 mph 1015.5mb 84f 83f
8:50am 4.5ft 9s 6s 9 11 mph 1015.5mb 84f 83f
7:50am 4ft 10s 6s 11 13 mph 1015.2mb 84f 83f
6:50am 4.5ft 8s 5s 11 13 mph 1014.5mb 84f 83f
5:50am 4.5ft 10s 6s 16 20 mph 1014.8mb 84f 81f